sensor_id;sensor_type;location;lat;lon;timestamp;pressure;altitude;pressure_sealevel;temperature;humidity
1472;BME280;963;42.644;23.336;2023-05-24T00:00:59;93995.19;;;16.35;62.03
1472;BME280;963;42.644;23.336;2023-05-24T00:03:26;93999.41;;;16.32;62.24
1472;BME280;963;42.644;23.336;2023-05-24T00:05:55;93985.84;;;16.23;62.39
1472;BME280;963;42.644;23.336;2023-05-24T00:08:21;94008.63;;;16.20;62.53
1472;BME280;963;42.644;23.336;2023-05-24T00:10:46;93999.53;;;16.21;62.35
1472;BME280;963;42.644;23.336;2023-05-24T00:13:12;93996.50;;;16.19;63.03
1472;BME280;963;42.644;23.336;2023-05-24T00:15:39;93988.94;;;16.18;63.61
1472;BME280;963;42.644;23.336;2023-05-24T00:18:05;94004.09;;;16.21;63.91
1472;BME280;963;42.644;23.336;2023-05-24T00:20:30;93994.25;;;16.18;64.20
1472;BME280;963;42.644;23.336;2023-05-24T00:22:56;93983.69;;;16.14;64.30
1472;BME280;963;42.644;23.336;2023-05-24T00:25:21;93987.41;;;16.20;64.10
1472;BME280;963;42.644;23.336;2023-05-24T00:27:47;93995.75;;;16.19;64.23
1472;BME280;963;42.644;23.336;2023-05-24T00:30:12;94004.47;;;16.19;64.08
1472;BME280;963;42.644;23.336;2023-05-24T00:32:38;94004.94;;;16.11;64.64
1472;BME280;963;42.644;23.336;2023-05-24T00:35:03;93994.06;;;16.02;64.67
1472;BME280;963;42.644;23.336;2023-05-24T00:37:29;93987.97;;;16.05;64.70
1472;BME280;963;42.644;23.336;2023-05-24T00:39:55;93981.53;;;16.02;64.32
1472;BME280;963;42.644;23.336;2023-05-24T00:42:20;93987.53;;;16.10;65.04
1472;BME280;963;42.644;23.336;2023-05-24T00:44:46;93992.84;;;16.10;65.06
1472;BME280;963;42.644;23.336;2023-05-24T00:47:11;93979.28;;;16.01;65.40
1472;BME280;963;42.644;23.336;2023-05-24T00:49:37;93983.03;;;16.03;65.18
1472;BME280;963;42.644;23.336;2023-05-24T00:52:02;93993.72;;;15.96;65.35
1472;BME280;963;42.644;23.336;2023-05-24T00:54:28;93978.25;;;15.87;65.17
1472;BME280;963;42.644;23.336;2023-05-24T00:56:54;93976.84;;;15.76;65.76
1472;BME280;963;42.644;23.336;2023-05-24T00:59:22;93985.53;;;15.80;66.23
1472;BME280;963;42.644;23.336;2023-05-24T01:01:47;93980.25;;;15.76;66.62
1472;BME280;963;42.644;23.336;2023-05-24T01:04:13;93986.34;;;15.73;66.86
1472;BME280;963;42.644;23.336;2023-05-24T01:20:22;93988.34;;;15.55;67.52
1472;BME280;963;42.644;23.336;2023-05-24T01:28:38;93994.25;;;15.28;67.24
1472;BME280;963;42.644;23.336;2023-05-24T01:31:03;93999.50;;;15.36;67.43
1472;BME280;963;42.644;23.336;2023-05-24T01:33:31;93999.47;;;15.39;68.22
1472;BME280;963;42.644;23.336;2023-05-24T01:35:56;94017.63;;;15.41;68.16
1472;BME280;963;42.644;23.336;2023-05-24T01:38:22;93991.22;;;15.30;68.42
1472;BME280;963;42.644;23.336;2023-05-24T01:40:49;94013.91;;;15.35;68.99
1472;BME280;963;42.644;23.336;2023-05-24T01:49:05;94004.13;;;15.24;70.04
1472;BME280;963;42.644;23.336;2023-05-24T01:51:44;94002.78;;;14.95;70.97
1472;BME280;963;42.644;23.336;2023-05-24T01:54:13;94001.31;;;14.90;69.91
1472;BME280;963;42.644;23.336;2023-05-24T01:56:40;94019.59;;;14.60;69.30
1472;BME280;963;42.644;23.336;2023-05-24T01:59:07;94012.06;;;14.37;69.50
1472;BME280;963;42.644;23.336;2023-05-24T02:01:33;94001.91;;;14.25;70.22
1472;BME280;963;42.644;23.336;2023-05-24T02:04:00;93995.78;;;14.42;69.80
1472;BME280;963;42.644;23.336;2023-05-24T02:06:25;93999.97;;;14.54;69.16
1472;BME280;963;42.644;23.336;2023-05-24T02:08:51;94006.38;;;14.56;69.51
1472;BME280;963;42.644;23.336;2023-05-24T02:11:17;94001.44;;;14.62;69.55
1472;BME280;963;42.644;23.336;2023-05-24T02:13:43;94015.41;;;14.66;69.23
1472;BME280;963;42.644;23.336;2023-05-24T02:16:08;93987.78;;;14.70;69.49
1472;BME280;963;42.644;23.336;2023-05-24T02:18:34;93979.50;;;14.61;69.41
1472;BME280;963;42.644;23.336;2023-05-24T02:21:01;93991.53;;;14.73;69.17
1472;BME280;963;42.644;23.336;2023-05-24T02:23:26;94006.66;;;14.73;69.31
1472;BME280;963;42.644;23.336;2023-05-24T02:25:52;93997.25;;;14.64;70.63
1472;BME280;963;42.644;23.336;2023-05-24T02:28:17;93974.69;;;14.24;71.96
1472;BME280;963;42.644;23.336;2023-05-24T02:30:43;93984.53;;;14.24;72.57
1472;BME280;963;42.644;23.336;2023-05-24T02:33:09;93972.38;;;14.37;71.41
1472;BME280;963;42.644;23.336;2023-05-24T02:35:35;93993.16;;;14.42;71.02
1472;BME280;963;42.644;23.336;2023-05-24T02:38:01;93986.03;;;14.28;71.15
1472;BME280;963;42.644;23.336;2023-05-24T02:40:28;93987.19;;;14.24;71.87
1472;BME280;963;42.644;23.336;2023-05-24T02:42:53;93976.25;;;14.15;72.29
1472;BME280;963;42.644;23.336;2023-05-24T02:45:18;93999.28;;;14.25;72.10
1472;BME280;963;42.644;23.336;2023-05-24T02:47:44;93986.34;;;14.48;71.59
1472;BME280;963;42.644;23.336;2023-05-24T02:50:10;93999.97;;;14.50;71.15
1472;BME280;963;42.644;23.336;2023-05-24T02:52:36;93989.38;;;14.50;71.14
1472;BME280;963;42.644;23.336;2023-05-24T02:55:01;93981.47;;;14.43;71.33
1472;BME280;963;42.644;23.336;2023-05-24T02:57:27;94004.91;;;14.34;71.85
1472;BME280;963;42.644;23.336;2023-05-24T02:59:52;93991.31;;;14.32;71.74
1472;BME280;963;42.644;23.336;2023-05-24T03:02:18;94027.25;;;14.12;72.29
1472;BME280;963;42.644;23.336;2023-05-24T03:04:46;93971.34;;;14.17;71.28
1472;BME280;963;42.644;23.336;2023-05-24T03:07:11;93992.19;;;13.72;71.67
1472;BME280;963;42.644;23.336;2023-05-24T03:09:38;93990.31;;;13.62;71.81
1472;BME280;963;42.644;23.336;2023-05-24T03:12:04;93991.06;;;13.66;71.43
1472;BME280;963;42.644;23.336;2023-05-24T03:14:29;93994.81;;;13.83;70.58
1472;BME280;963;42.644;23.336;2023-05-24T03:16:55;94006.88;;;13.94;69.82
1472;BME280;963;42.644;23.336;2023-05-24T03:19:21;93996.66;;;14.03;69.58
1472;BME280;963;42.644;23.336;2023-05-24T03:21:46;93995.88;;;14.10;69.44
1472;BME280;963;42.644;23.336;2023-05-24T03:24:12;93998.16;;;14.19;69.57
1472;BME280;963;42.644;23.336;2023-05-24T03:26:39;94004.56;;;14.25;69.93
1472;BME280;963;42.644;23.336;2023-05-24T03:29:04;94010.22;;;14.23;69.95
1472;BME280;963;42.644;23.336;2023-05-24T03:31:30;94008.34;;;14.24;70.32
1472;BME280;963;42.644;23.336;2023-05-24T03:33:55;94005.31;;;14.22;70.74
1472;BME280;963;42.644;23.336;2023-05-24T03:36:20;94012.06;;;14.37;71.53
1472;BME280;963;42.644;23.336;2023-05-24T03:38:46;94018.84;;;14.42;70.71
1472;BME280;963;42.644;23.336;2023-05-24T03:41:12;94017.72;;;14.46;69.57
1472;BME280;963;42.644;23.336;2023-05-24T03:43:37;94019.63;;;14.49;69.56
1472;BME280;963;42.644;23.336;2023-05-24T03:46:02;94033.63;;;14.53;69.69
1472;BME280;963;42.644;23.336;2023-05-24T03:48:28;94003.00;;;14.52;69.80
1472;BME280;963;42.644;23.336;2023-05-24T03:50:53;94015.09;;;14.53;69.94
1472;BME280;963;42.644;23.336;2023-05-24T03:53:19;94024.56;;;14.51;69.47
1472;BME280;963;42.644;23.336;2023-05-24T03:55:45;94023.41;;;14.52;69.18
1472;BME280;963;42.644;23.336;2023-05-24T03:58:10;94011.28;;;14.58;69.43
1472;BME280;963;42.644;23.336;2023-05-24T04:00:36;94015.78;;;14.64;69.24
1472;BME280;963;42.644;23.336;2023-05-24T04:03:02;94031.28;;;14.69;68.98
1472;BME280;963;42.644;23.336;2023-05-24T04:05:31;94016.84;;;14.78;69.07
1472;BME280;963;42.644;23.336;2023-05-24T04:07:56;94009.28;;;14.80;69.30
1472;BME280;963;42.644;23.336;2023-05-24T04:10:21;94021.72;;;14.86;68.88
1472;BME280;963;42.644;23.336;2023-05-24T04:12:47;94050.47;;;14.91;69.00
1472;BME280;963;42.644;23.336;2023-05-24T04:15:13;94026.28;;;14.89;68.96
1472;BME280;963;42.644;23.336;2023-05-24T04:17:43;94019.03;;;14.97;68.68
1472;BME280;963;42.644;23.336;2023-05-24T04:20:10;94023.94;;;15.02;68.45
1472;BME280;963;42.644;23.336;2023-05-24T04:22:36;94023.97;;;14.98;68.34
1472;BME280;963;42.644;23.336;2023-05-24T04:25:02;94031.50;;;15.00;68.48
1472;BME280;963;42.644;23.336;2023-05-24T04:27:28;94023.56;;;15.00;68.56
1472;BME280;963;42.644;23.336;2023-05-24T04:29:54;94033.75;;;15.05;68.38
1472;BME280;963;42.644;23.336;2023-05-24T04:32:20;94048.06;;;15.15;68.26
1472;BME280;963;42.644;23.336;2023-05-24T04:34:45;94018.56;;;15.13;68.43
1472;BME280;963;42.644;23.336;2023-05-24T04:37:11;94026.16;;;15.07;69.01
1472;BME280;963;42.644;23.336;2023-05-24T04:39:38;94038.22;;;15.15;69.46
1472;BME280;963;42.644;23.336;2023-05-24T04:42:05;94049.53;;;15.23;69.38
1472;BME280;963;42.644;23.336;2023-05-24T04:44:31;94040.44;;;15.27;69.36
1472;BME280;963;42.644;23.336;2023-05-24T04:46:56;94040.72;;;15.40;68.82
1472;BME280;963;42.644;23.336;2023-05-24T04:49:21;94064.56;;;15.44;68.33
1472;BME280;963;42.644;23.336;2023-05-24T04:51:47;94059.69;;;15.39;68.33
1472;BME280;963;42.644;23.336;2023-05-24T04:54:12;94062.31;;;15.42;68.45
1472;BME280;963;42.644;23.336;2023-05-24T04:56:38;94048.97;;;15.53;67.89
1472;BME280;963;42.644;23.336;2023-05-24T04:59:06;94050.59;;;15.40;68.46
1472;BME280;963;42.644;23.336;2023-05-24T05:01:32;94031.69;;;15.34;68.30
1472;BME280;963;42.644;23.336;2023-05-24T05:03:58;94040.06;;;15.29;68.53
1472;BME280;963;42.644;23.336;2023-05-24T05:06:24;94060.09;;;15.33;68.46
1472;BME280;963;42.644;23.336;2023-05-24T05:08:50;94058.03;;;15.55;67.93
1472;BME280;963;42.644;23.336;2023-05-24T05:11:16;94050.47;;;15.61;68.06
1472;BME280;963;42.644;23.336;2023-05-24T05:13:43;94056.75;;;15.81;67.33
1472;BME280;963;42.644;23.336;2023-05-24T05:16:09;94050.31;;;15.79;68.13
1472;BME280;963;42.644;23.336;2023-05-24T05:18:34;94052.09;;;15.92;67.54
1472;BME280;963;42.644;23.336;2023-05-24T05:20:59;94039.94;;;15.99;67.38
1472;BME280;963;42.644;23.336;2023-05-24T05:23:25;94049.38;;;16.03;66.88
1472;BME280;963;42.644;23.336;2023-05-24T05:25:50;94062.09;;;16.19;65.91
1472;BME280;963;42.644;23.336;2023-05-24T05:28:16;94055.66;;;16.20;66.09
1472;BME280;963;42.644;23.336;2023-05-24T05:30:41;94053.44;;;16.15;65.98
1472;BME280;963;42.644;23.336;2023-05-24T05:33:06;94066.53;;;15.88;66.98
1472;BME280;963;42.644;23.336;2023-05-24T05:35:32;94065.59;;;16.12;66.68
1472;BME280;963;42.644;23.336;2023-05-24T05:37:57;94072.28;;;16.24;66.58
1472;BME280;963;42.644;23.336;2023-05-24T05:40:23;94066.47;;;16.40;66.22
1472;BME280;963;42.644;23.336;2023-05-24T05:42:48;94070.50;;;16.14;66.77
1472;BME280;963;42.644;23.336;2023-05-24T05:45:14;94070.09;;;16.15;66.38
1472;BME280;963;42.644;23.336;2023-05-24T05:47:40;94077.03;;;16.06;66.51
1472;BME280;963;42.644;23.336;2023-05-24T05:50:06;94073.16;;;16.14;65.84
1472;BME280;963;42.644;23.336;2023-05-24T05:52:31;94064.59;;;16.37;65.20
1472;BME280;963;42.644;23.336;2023-05-24T05:54:57;94067.84;;;16.51;64.82
1472;BME280;963;42.644;23.336;2023-05-24T05:57:24;94066.59;;;16.63;64.81
1472;BME280;963;42.644;23.336;2023-05-24T05:59:49;94060.31;;;16.46;65.01
1472;BME280;963;42.644;23.336;2023-05-24T06:02:15;94082.88;;;16.69;64.44
1472;BME280;963;42.644;23.336;2023-05-24T06:04:43;94080.38;;;16.51;65.21
1472;BME280;963;42.644;23.336;2023-05-24T06:07:08;94087.66;;;16.43;64.86
1472;BME280;963;42.644;23.336;2023-05-24T06:09:34;94074.16;;;16.65;64.06
1472;BME280;963;42.644;23.336;2023-05-24T06:11:59;94079.34;;;16.79;63.49
1472;BME280;963;42.644;23.336;2023-05-24T06:14:25;94077.28;;;16.94;63.47
1472;BME280;963;42.644;23.336;2023-05-24T06:16:51;94072.28;;;16.99;63.67
1472;BME280;963;42.644;23.336;2023-05-24T06:19:18;94077.06;;;17.11;63.76
1472;BME280;963;42.644;23.336;2023-05-24T06:21:46;94081.03;;;17.27;63.18
1472;BME280;963;42.644;23.336;2023-05-24T06:24:16;94083.69;;;17.27;63.75
1472;BME280;963;42.644;23.336;2023-05-24T06:26:45;94087.88;;;17.28;63.13
1472;BME280;963;42.644;23.336;2023-05-24T06:29:11;94076.22;;;17.45;62.36
1472;BME280;963;42.644;23.336;2023-05-24T06:31:36;94077.53;;;17.60;62.01
1472;BME280;963;42.644;23.336;2023-05-24T06:34:02;94075.56;;;17.68;61.60
1472;BME280;963;42.644;23.336;2023-05-24T06:36:27;94074.28;;;17.76;61.27
1472;BME280;963;42.644;23.336;2023-05-24T06:38:52;94067.00;;;17.80;60.77
1472;BME280;963;42.644;23.336;2023-05-24T06:41:18;94066.72;;;17.98;60.76
1472;BME280;963;42.644;23.336;2023-05-24T06:43:43;94067.94;;;17.93;60.73
1472;BME280;963;42.644;23.336;2023-05-24T06:46:10;94078.59;;;17.93;60.80
1472;BME280;963;42.644;23.336;2023-05-24T06:48:35;94069.16;;;18.12;60.15
1472;BME280;963;42.644;23.336;2023-05-24T06:51:01;94063.75;;;18.16;58.62
1472;BME280;963;42.644;23.336;2023-05-24T06:53:26;94071.25;;;18.24;59.04
1472;BME280;963;42.644;23.336;2023-05-24T06:55:52;94066.78;;;18.18;59.11
1472;BME280;963;42.644;23.336;2023-05-24T06:58:17;94063.13;;;18.31;59.07
1472;BME280;963;42.644;23.336;2023-05-24T07:00:43;94059.44;;;18.45;59.59
1472;BME280;963;42.644;23.336;2023-05-24T07:03:11;94065.06;;;18.51;58.53
1472;BME280;963;42.644;23.336;2023-05-24T07:05:36;94067.91;;;18.63;58.39
1472;BME280;963;42.644;23.336;2023-05-24T07:08:02;94060.19;;;18.69;57.90
1472;BME280;963;42.644;23.336;2023-05-24T07:10:28;94065.66;;;18.62;58.37
1472;BME280;963;42.644;23.336;2023-05-24T07:12:54;94052.34;;;18.62;58.94
1472;BME280;963;42.644;23.336;2023-05-24T07:15:19;94059.97;;;18.80;58.80
1472;BME280;963;42.644;23.336;2023-05-24T07:17:45;94066.31;;;18.86;58.68
1472;BME280;963;42.644;23.336;2023-05-24T07:20:10;94073.56;;;19.05;58.48
1472;BME280;963;42.644;23.336;2023-05-24T07:22:38;94066.66;;;19.08;57.96
1472;BME280;963;42.644;23.336;2023-05-24T07:25:03;94061.19;;;19.15;57.49
1472;BME280;963;42.644;23.336;2023-05-24T07:27:29;94060.44;;;19.14;57.18
1472;BME280;963;42.644;23.336;2023-05-24T07:29:55;94070.19;;;19.21;57.71
1472;BME280;963;42.644;23.336;2023-05-24T07:32:21;94075.16;;;19.39;57.13
1472;BME280;963;42.644;23.336;2023-05-24T07:34:47;94081.25;;;19.39;57.98
1472;BME280;963;42.644;23.336;2023-05-24T07:37:12;94079.44;;;19.52;56.99
1472;BME280;963;42.644;23.336;2023-05-24T07:39:38;94056.47;;;19.58;55.99
1472;BME280;963;42.644;23.336;2023-05-24T07:42:04;94070.56;;;19.75;55.03
1472;BME280;963;42.644;23.336;2023-05-24T07:44:29;94068.81;;;19.85;55.15
1472;BME280;963;42.644;23.336;2023-05-24T07:46:55;94065.56;;;19.93;55.61
1472;BME280;963;42.644;23.336;2023-05-24T07:49:21;94076.81;;;20.01;56.70
1472;BME280;963;42.644;23.336;2023-05-24T07:51:46;94054.13;;;20.09;56.19
1472;BME280;963;42.644;23.336;2023-05-24T07:54:13;94061.78;;;20.23;55.99
1472;BME280;963;42.644;23.336;2023-05-24T07:56:38;94062.53;;;20.24;55.79
1472;BME280;963;42.644;23.336;2023-05-24T07:59:03;94061.03;;;20.23;55.43
1472;BME280;963;42.644;23.336;2023-05-24T08:01:33;94063.19;;;20.28;55.01
1472;BME280;963;42.644;23.336;2023-05-24T08:04:00;94070.69;;;20.33;54.95
1472;BME280;963;42.644;23.336;2023-05-24T08:06:28;94057.09;;;20.27;55.12
1472;BME280;963;42.644;23.336;2023-05-24T08:08:53;94059.44;;;20.25;54.82
1472;BME280;963;42.644;23.336;2023-05-24T08:11:19;94060.19;;;20.26;54.66
1472;BME280;963;42.644;23.336;2023-05-24T08:13:44;94055.84;;;20.48;54.49
1472;BME280;963;42.644;23.336;2023-05-24T08:16:10;94077.47;;;20.54;53.41
1472;BME280;963;42.644;23.336;2023-05-24T08:18:35;94048.06;;;20.54;53.46
1472;BME280;963;42.644;23.336;2023-05-24T08:21:00;94060.72;;;20.66;53.36
1472;BME280;963;42.644;23.336;2023-05-24T08:23:26;94061.84;;;20.81;53.04
1472;BME280;963;42.644;23.336;2023-05-24T08:25:56;94047.94;;;20.86;51.24
1472;BME280;963;42.644;23.336;2023-05-24T08:28:21;94055.44;;;20.91;48.69
1472;BME280;963;42.644;23.336;2023-05-24T08:30:47;94056.53;;;21.07;48.16
1472;BME280;963;42.644;23.336;2023-05-24T08:33:12;94056.97;;;21.18;46.91
1472;BME280;963;42.644;23.336;2023-05-24T08:35:38;94050.66;;;21.12;46.93
1472;BME280;963;42.644;23.336;2023-05-24T08:38:03;94059.66;;;21.18;46.70
1472;BME280;963;42.644;23.336;2023-05-24T08:40:29;94053.97;;;21.16;46.01
1472;BME280;963;42.644;23.336;2023-05-24T08:42:58;94053.50;;;21.34;46.59
1472;BME280;963;42.644;23.336;2023-05-24T08:45:25;94055.66;;;21.39;45.13
1472;BME280;963;42.644;23.336;2023-05-24T08:47:51;94056.94;;;21.47;44.48
1472;BME280;963;42.644;23.336;2023-05-24T08:50:16;94056.38;;;21.52;44.04
1472;BME280;963;42.644;23.336;2023-05-24T08:52:42;94055.13;;;21.57;43.83
1472;BME280;963;42.644;23.336;2023-05-24T08:55:10;94057.28;;;21.62;43.89
1472;BME280;963;42.644;23.336;2023-05-24T08:57:36;94049.97;;;21.49;44.77
1472;BME280;963;42.644;23.336;2023-05-24T09:00:05;94054.06;;;21.67;44.90
1472;BME280;963;42.644;23.336;2023-05-24T09:02:31;94064.75;;;21.67;43.72
1472;BME280;963;42.644;23.336;2023-05-24T09:04:57;94049.75;;;21.82;42.99
1472;BME280;963;42.644;23.336;2023-05-24T09:07:24;94052.50;;;21.91;43.05
1472;BME280;963;42.644;23.336;2023-05-24T09:10:05;94050.25;;;22.02;43.31
1472;BME280;963;42.644;23.336;2023-05-24T09:12:31;94073.94;;;21.91;41.56
1472;BME280;963;42.644;23.336;2023-05-24T09:14:57;94050.38;;;21.86;41.90
1472;BME280;963;42.644;23.336;2023-05-24T09:17:23;94044.81;;;21.93;41.48
1472;BME280;963;42.644;23.336;2023-05-24T09:19:50;94050.25;;;22.02;42.78
1472;BME280;963;42.644;23.336;2023-05-24T09:22:16;94051.94;;;22.22;42.24
1472;BME280;963;42.644;23.336;2023-05-24T09:24:47;94041.09;;;22.38;40.71
1472;BME280;963;42.644;23.336;2023-05-24T09:27:16;94046.50;;;22.47;40.81
1472;BME280;963;42.644;23.336;2023-05-24T09:29:42;94047.13;;;22.51;40.13
1472;BME280;963;42.644;23.336;2023-05-24T09:32:11;94033.09;;;22.47;39.44
1472;BME280;963;42.644;23.336;2023-05-24T09:34:38;94043.78;;;22.60;39.83
1472;BME280;963;42.644;23.336;2023-05-24T09:37:04;94041.78;;;22.73;38.81
1472;BME280;963;42.644;23.336;2023-05-24T09:39:31;94031.50;;;22.71;39.06
1472;BME280;963;42.644;23.336;2023-05-24T09:41:56;94036.38;;;22.86;39.75
1472;BME280;963;42.644;23.336;2023-05-24T09:44:26;94042.25;;;22.93;39.48
1472;BME280;963;42.644;23.336;2023-05-24T09:46:53;94038.41;;;23.03;39.63
1472;BME280;963;42.644;23.336;2023-05-24T09:49:20;94028.13;;;23.02;37.81
1472;BME280;963;42.644;23.336;2023-05-24T09:51:45;94022.53;;;23.09;37.86
1472;BME280;963;42.644;23.336;2023-05-24T09:54:11;94035.63;;;23.07;37.99
1472;BME280;963;42.644;23.336;2023-05-24T09:56:38;94030.56;;;23.09;37.91
1472;BME280;963;42.644;23.336;2023-05-24T09:59:07;94038.75;;;22.84;36.65
1472;BME280;963;42.644;23.336;2023-05-24T10:01:33;94038.63;;;22.87;37.71
1472;BME280;963;42.644;23.336;2023-05-24T10:04:00;94040.94;;;22.98;38.35
1472;BME280;963;42.644;23.336;2023-05-24T10:06:27;94009.31;;;22.93;36.01
1472;BME280;963;42.644;23.336;2023-05-24T10:08:54;94022.41;;;22.91;35.69
1472;BME280;963;42.644;23.336;2023-05-24T10:11:20;94026.00;;;22.97;36.06
1472;BME280;963;42.644;23.336;2023-05-24T10:13:47;94006.94;;;22.95;35.92
1472;BME280;963;42.644;23.336;2023-05-24T10:16:13;94022.75;;;23.33;36.38
1472;BME280;963;42.644;23.336;2023-05-24T10:18:38;94026.72;;;23.50;36.78
1472;BME280;963;42.644;23.336;2023-05-24T10:21:05;94005.31;;;23.59;36.71
1472;BME280;963;42.644;23.336;2023-05-24T10:23:38;94031.59;;;23.74;36.17
1472;BME280;963;42.644;23.336;2023-05-24T10:26:04;94021.06;;;23.88;35.66
1472;BME280;963;42.644;23.336;2023-05-24T10:28:50;94013.16;;;23.94;35.92
1472;BME280;963;42.644;23.336;2023-05-24T10:31:29;94015.53;;;23.92;33.87
1472;BME280;963;42.644;23.336;2023-05-24T10:33:57;94017.78;;;24.02;34.76
1472;BME280;963;42.644;23.336;2023-05-24T10:36:24;94007.19;;;24.08;35.28
1472;BME280;963;42.644;23.336;2023-05-24T10:38:53;94011.34;;;24.00;34.85
1472;BME280;963;42.644;23.336;2023-05-24T10:41:18;94003.91;;;23.95;36.04
1472;BME280;963;42.644;23.336;2023-05-24T10:43:45;93997.31;;;23.87;34.74
1472;BME280;963;42.644;23.336;2023-05-24T10:46:14;93985.63;;;23.62;34.71
1472;BME280;963;42.644;23.336;2023-05-24T10:48:40;93995.97;;;23.82;34.65
1472;BME280;963;42.644;23.336;2023-05-24T10:51:29;93991.78;;;23.90;34.36
1472;BME280;963;42.644;23.336;2023-05-24T10:54:09;93993.59;;;24.02;33.78
1472;BME280;963;42.644;23.336;2023-05-24T10:56:39;93985.09;;;24.13;33.85
1472;BME280;963;42.644;23.336;2023-05-24T10:59:05;93994.38;;;24.49;33.91
1472;BME280;963;42.644;23.336;2023-05-24T11:01:32;93978.41;;;24.54;32.36
1472;BME280;963;42.644;23.336;2023-05-24T11:04:11;93971.50;;;24.72;33.00
1472;BME280;963;42.644;23.336;2023-05-24T11:06:53;93970.63;;;24.56;34.70
1472;BME280;963;42.644;23.336;2023-05-24T11:09:20;93970.88;;;24.77;35.13
1472;BME280;963;42.644;23.336;2023-05-24T11:11:47;93966.22;;;24.86;33.72
1472;BME280;963;42.644;23.336;2023-05-24T11:14:17;93982.94;;;25.09;34.32
1472;BME280;963;42.644;23.336;2023-05-24T11:16:45;93977.34;;;25.31;33.74
1472;BME280;963;42.644;23.336;2023-05-24T11:19:15;93975.56;;;25.28;32.59
1472;BME280;963;42.644;23.336;2023-05-24T11:21:43;93972.00;;;25.12;32.30
1472;BME280;963;42.644;23.336;2023-05-24T11:24:09;93969.03;;;25.10;32.73
1472;BME280;963;42.644;23.336;2023-05-24T11:26:35;93968.97;;;25.29;33.16
1472;BME280;963;42.644;23.336;2023-05-24T11:29:00;93967.50;;;25.28;33.74
1472;BME280;963;42.644;23.336;2023-05-24T11:31:26;93963.50;;;25.47;33.44
1472;BME280;963;42.644;23.336;2023-05-24T11:33:52;93959.25;;;25.55;33.36
1472;BME280;963;42.644;23.336;2023-05-24T11:36:18;93971.13;;;25.81;33.85
1472;BME280;963;42.644;23.336;2023-05-24T11:38:45;93967.78;;;25.86;33.42
1472;BME280;963;42.644;23.336;2023-05-24T11:41:12;93964.94;;;25.66;32.83
1472;BME280;963;42.644;23.336;2023-05-24T11:43:37;93958.44;;;25.97;33.29
1472;BME280;963;42.644;23.336;2023-05-24T11:46:03;93952.06;;;26.09;32.95
1472;BME280;963;42.644;23.336;2023-05-24T11:48:28;93968.81;;;26.13;33.04
1472;BME280;963;42.644;23.336;2023-05-24T11:50:55;93949.56;;;26.05;33.79
1472;BME280;963;42.644;23.336;2023-05-24T11:53:20;93942.84;;;25.77;34.24
1472;BME280;963;42.644;23.336;2023-05-24T11:55:46;93957.50;;;25.10;34.74
1472;BME280;963;42.644;23.336;2023-05-24T12:00:44;93938.47;;;25.22;35.18
1472;BME280;963;42.644;23.336;2023-05-24T12:03:11;93943.25;;;25.51;35.14
1472;BME280;963;42.644;23.336;2023-05-24T12:05:36;93939.81;;;25.51;34.90
1472;BME280;963;42.644;23.336;2023-05-24T12:08:03;93933.94;;;25.85;33.54
1472;BME280;963;42.644;23.336;2023-05-24T12:10:31;93941.81;;;25.74;33.66
1472;BME280;963;42.644;23.336;2023-05-24T12:12:57;93951.13;;;25.64;33.82
1472;BME280;963;42.644;23.336;2023-05-24T12:15:23;93944.25;;;25.63;33.69
1472;BME280;963;42.644;23.336;2023-05-24T12:17:48;93941.41;;;25.91;34.23
1472;BME280;963;42.644;23.336;2023-05-24T12:20:17;93929.97;;;26.20;32.99
1472;BME280;963;42.644;23.336;2023-05-24T12:22:51;93936.34;;;26.07;32.50
1472;BME280;963;42.644;23.336;2023-05-24T12:25:18;93936.66;;;25.85;32.19
1472;BME280;963;42.644;23.336;2023-05-24T12:27:46;93926.91;;;25.88;30.94
1472;BME280;963;42.644;23.336;2023-05-24T12:30:13;93917.31;;;26.11;30.90
1472;BME280;963;42.644;23.336;2023-05-24T12:32:44;93906.63;;;26.31;31.52
1472;BME280;963;42.644;23.336;2023-05-24T12:35:11;93909.00;;;26.68;32.22
1472;BME280;963;42.644;23.336;2023-05-24T12:37:36;93908.06;;;27.00;32.01
1472;BME280;963;42.644;23.336;2023-05-24T12:40:02;93911.31;;;26.75;33.09
1472;BME280;963;42.644;23.336;2023-05-24T12:42:29;93889.25;;;26.91;32.81
1472;BME280;963;42.644;23.336;2023-05-24T12:44:55;93900.41;;;27.14;33.03
1472;BME280;963;42.644;23.336;2023-05-24T12:47:20;93887.69;;;27.34;33.00
1472;BME280;963;42.644;23.336;2023-05-24T12:49:46;93902.34;;;27.48;32.61
1472;BME280;963;42.644;23.336;2023-05-24T12:52:11;93904.28;;;27.27;32.99
1472;BME280;963;42.644;23.336;2023-05-24T12:54:37;93886.25;;;27.19;32.75
1472;BME280;963;42.644;23.336;2023-05-24T12:57:02;93897.03;;;26.30;32.42
1472;BME280;963;42.644;23.336;2023-05-24T12:59:28;93917.09;;;26.68;32.25
1472;BME280;963;42.644;23.336;2023-05-24T13:01:54;93886.66;;;26.67;32.61
1472;BME280;963;42.644;23.336;2023-05-24T13:04:21;93888.97;;;26.89;32.54
1472;BME280;963;42.644;23.336;2023-05-24T13:06:47;93880.53;;;26.82;32.61
1472;BME280;963;42.644;23.336;2023-05-24T13:09:13;93905.00;;;26.78;32.59
1472;BME280;963;42.644;23.336;2023-05-24T13:11:38;93903.66;;;26.29;33.02
1472;BME280;963;42.644;23.336;2023-05-24T13:14:04;93882.22;;;26.50;32.81
1472;BME280;963;42.644;23.336;2023-05-24T13:16:30;93886.25;;;26.30;32.96
1472;BME280;963;42.644;23.336;2023-05-24T13:18:56;93887.50;;;26.59;33.45
1472;BME280;963;42.644;23.336;2023-05-24T13:21:22;93874.09;;;26.79;33.14
1472;BME280;963;42.644;23.336;2023-05-24T13:23:48;93883.03;;;27.00;33.23
1472;BME280;963;42.644;23.336;2023-05-24T13:26:13;93876.56;;;26.97;32.40
1472;BME280;963;42.644;23.336;2023-05-24T13:28:38;93883.66;;;26.95;32.98
1472;BME280;963;42.644;23.336;2023-05-24T13:31:04;93877.50;;;26.94;33.15
1472;BME280;963;42.644;23.336;2023-05-24T13:33:30;93861.56;;;26.46;33.04
1472;BME280;963;42.644;23.336;2023-05-24T13:35:56;93871.25;;;26.00;34.00
1472;BME280;963;42.644;23.336;2023-05-24T13:38:22;93877.56;;;25.97;33.76
1472;BME280;963;42.644;23.336;2023-05-24T13:40:47;93876.53;;;25.94;33.52
1472;BME280;963;42.644;23.336;2023-05-24T13:43:13;93872.81;;;25.92;33.78
1472;BME280;963;42.644;23.336;2023-05-24T13:45:39;93883.00;;;26.11;33.01